createdAt,value
2023-01-10T00:01:07.269Z,97459.00
2023-01-10T00:03:34.929Z,97465.00
2023-01-10T00:06:02.549Z,97465.00
2023-01-10T00:08:30.183Z,97462.00
2023-01-10T00:10:57.883Z,97474.00
2023-01-10T00:13:24.709Z,97469.00
2023-01-10T00:15:54.820Z,97477.00
2023-01-10T00:18:23.110Z,97481.00
2023-01-10T00:20:51.008Z,97492.00
2023-01-10T00:23:23.282Z,97489.00
2023-01-10T00:25:50.881Z,97493.00
2023-01-10T00:28:20.130Z,97495.00
2023-01-10T00:31:00.833Z,97500.00
2023-01-10T00:33:28.602Z,97502.00
2023-01-10T00:35:56.245Z,97510.00
2023-01-10T00:38:23.896Z,97501.00
2023-01-10T00:40:51.502Z,97518.00
2023-01-10T00:43:37.100Z,97518.00
2023-01-10T00:46:06.451Z,97516.00
2023-01-10T00:48:34.097Z,97519.00
2023-01-10T00:51:01.831Z,97518.00
2023-01-10T00:53:29.572Z,97525.00
2023-01-10T00:55:57.525Z,97537.00
2023-01-10T00:58:25.288Z,97534.00
2023-01-10T01:00:53.114Z,97540.00
2023-01-10T01:03:23.149Z,97543.00
2023-01-10T01:05:51.415Z,97551.00
2023-01-10T01:08:20.024Z,97555.00
2023-01-10T01:10:47.942Z,97546.00
2023-01-10T01:13:18.719Z,97562.00
2023-01-10T01:15:46.656Z,97562.00
2023-01-10T01:18:16.452Z,97576.00
2023-01-10T01:20:46.717Z,97571.00
2023-01-10T01:23:14.703Z,97578.00
2023-01-10T01:25:42.693Z,97590.00
2023-01-10T01:28:13.060Z,97587.00
2023-01-10T01:30:40.806Z,97597.00
2023-01-10T01:33:08.488Z,97597.00
2023-01-10T01:35:36.397Z,97604.00
2023-01-10T01:38:05.329Z,97600.00
2023-01-10T01:40:32.985Z,97610.00
2023-01-10T01:43:00.777Z,97604.00
2023-01-10T01:45:40.845Z,97604.00
2023-01-10T01:48:20.835Z,97609.00
2023-01-10T01:50:53.900Z,97614.00
2023-01-10T01:53:28.444Z,97615.00
2023-01-10T01:55:58.893Z,97624.00
2023-01-10T01:58:31.798Z,97619.00
2023-01-10T02:00:59.761Z,97626.00
2023-01-10T02:03:28.409Z,97641.00
2023-01-10T02:05:56.482Z,97638.00
2023-01-10T02:08:25.550Z,97635.00
2023-01-10T02:11:00.910Z,97644.00
2023-01-10T02:13:29.272Z,97641.00
2023-01-10T02:15:56.959Z,97646.00
2023-01-10T02:18:25.567Z,97645.00
2023-01-10T02:21:15.504Z,97647.00
2023-01-10T02:24:20.208Z,97657.00
2023-01-10T02:27:03.525Z,97657.00
2023-01-10T02:29:56.657Z,97668.00
2023-01-10T02:32:45.731Z,97674.00
2023-01-10T02:35:29.916Z,97674.00
2023-01-10T02:38:05.935Z,97670.00
2023-01-10T02:40:44.678Z,97675.00
2023-01-10T02:43:16.290Z,97681.00
2023-01-10T02:45:48.732Z,97682.00
2023-01-10T02:48:19.370Z,97682.00
2023-01-10T02:51:02.401Z,97679.00
2023-01-10T02:53:33.013Z,97689.00
2023-01-10T02:56:40.211Z,97696.00
2023-01-10T02:59:32.831Z,97697.00
2023-01-10T03:02:05.363Z,97708.00
2023-01-10T03:04:45.646Z,97706.00
2023-01-10T03:07:20.624Z,97709.00
2023-01-10T03:09:55.549Z,97711.00
2023-01-10T03:12:28.849Z,97718.00
2023-01-10T03:14:58.813Z,97720.00
2023-01-10T03:17:28.965Z,97711.00
2023-01-10T03:20:01.443Z,97725.00
2023-01-10T03:22:31.817Z,97726.00
2023-01-10T03:25:01.903Z,97720.00
2023-01-10T03:27:39.884Z,97736.00
2023-01-10T03:30:14.401Z,97736.00
2023-01-10T03:32:42.979Z,97743.00
2023-01-10T03:35:14.078Z,97755.00
2023-01-10T03:37:47.179Z,97765.00
2023-01-10T03:40:22.620Z,97767.00
2023-01-10T03:43:15.904Z,97774.00
2023-01-10T03:45:49.820Z,97785.00
2023-01-10T03:48:21.044Z,97788.00
2023-01-10T03:50:51.516Z,97800.00
2023-01-10T03:53:19.315Z,97803.00
2023-01-10T03:55:46.939Z,97800.00
2023-01-10T03:58:14.695Z,97809.00
2023-01-10T04:00:42.332Z,97816.00
2023-01-10T04:03:11.113Z,97814.00
2023-01-10T04:05:38.734Z,97822.00
2023-01-10T04:08:07.749Z,97833.00
2023-01-10T04:10:35.431Z,97834.00
2023-01-10T04:13:03.264Z,97840.00
2023-01-10T04:15:31.499Z,97832.00
2023-01-10T04:17:59.095Z,97842.00
2023-01-10T04:20:27.446Z,97844.00
2023-01-10T04:22:55.635Z,97844.00
2023-01-10T04:25:25.009Z,97845.00
2023-01-10T04:27:53.492Z,97858.00
2023-01-10T04:30:21.322Z,97862.00
2023-01-10T04:32:49.208Z,97867.00
2023-01-10T04:35:16.870Z,97876.00
2023-01-10T04:37:44.907Z,97873.00
2023-01-10T04:40:17.065Z,97879.00
2023-01-10T04:42:46.239Z,97883.00
2023-01-10T04:45:17.594Z,97886.00
2023-01-10T04:47:49.722Z,97898.00
2023-01-10T04:50:17.713Z,97907.00
2023-01-10T04:52:45.382Z,97908.00
2023-01-10T04:55:13.000Z,97910.00
2023-01-10T04:57:40.619Z,97918.00
2023-01-10T05:00:11.120Z,97920.00
2023-01-10T05:02:43.823Z,97919.00
2023-01-10T05:05:11.619Z,97921.00
2023-01-10T05:07:40.022Z,97924.00
2023-01-10T05:10:09.232Z,97932.00
2023-01-10T05:12:36.825Z,97943.00
2023-01-10T05:15:05.030Z,97952.00
2023-01-10T05:17:34.058Z,97964.00
2023-01-10T05:20:01.685Z,97962.00
2023-01-10T05:22:29.380Z,97977.00
2023-01-10T05:24:56.972Z,97979.00
2023-01-10T05:27:24.584Z,97983.00
2023-01-10T05:29:52.261Z,97985.00
2023-01-10T05:32:19.880Z,97986.00
2023-01-10T05:34:49.840Z,97991.00
2023-01-10T05:37:17.463Z,97996.00
2023-01-10T05:39:45.037Z,97994.00
2023-01-10T05:42:12.661Z,97998.00
2023-01-10T05:44:40.256Z,98005.00
2023-01-10T05:47:07.854Z,98021.00
2023-01-10T05:49:35.458Z,98026.00
2023-01-10T05:52:04.580Z,98031.00
2023-01-10T05:54:32.298Z,98034.00
2023-01-10T05:56:59.880Z,98037.00
2023-01-10T05:59:28.462Z,98049.00
2023-01-10T06:01:56.920Z,98050.00
2023-01-10T06:04:25.047Z,98054.00
2023-01-10T06:06:52.679Z,98060.00
2023-01-10T06:09:21.686Z,98064.00
2023-01-10T06:11:49.254Z,98075.00
2023-01-10T06:14:19.239Z,98074.00
2023-01-10T06:16:46.936Z,98080.00
2023-01-10T06:19:14.594Z,98077.00
2023-01-10T06:21:42.658Z,98082.00
2023-01-10T06:24:10.908Z,98086.00
2023-01-10T06:26:39.847Z,98081.00
2023-01-10T06:29:07.541Z,98104.00
2023-01-10T06:31:35.231Z,98091.00
2023-01-10T06:34:02.904Z,98100.00
2023-01-10T06:36:30.511Z,98108.00
2023-01-10T06:38:58.177Z,98120.00
2023-01-10T06:41:25.876Z,98130.00
2023-01-10T06:43:54.817Z,98137.00
2023-01-10T06:46:22.465Z,98150.00
2023-01-10T06:48:50.127Z,98155.00
2023-01-10T06:51:20.068Z,98154.00
2023-01-10T06:53:48.088Z,98156.00
2023-01-10T06:56:15.849Z,98167.00
2023-01-10T06:58:43.456Z,98170.00
2023-01-10T07:01:18.645Z,98175.00
2023-01-10T07:03:46.400Z,98175.00
2023-01-10T07:06:14.595Z,98187.00
2023-01-10T07:08:44.939Z,98190.00
2023-01-10T07:11:14.322Z,98198.00
2023-01-10T07:13:42.114Z,98201.00
2023-01-10T07:16:11.826Z,98209.00
2023-01-10T07:18:42.027Z,98211.00
2023-01-10T07:21:10.125Z,98220.00
2023-01-10T07:23:38.147Z,98225.00
2023-01-10T07:26:07.478Z,98230.00
2023-01-10T07:28:35.812Z,98241.00
2023-01-10T07:31:05.487Z,98246.00
2023-01-10T07:33:33.431Z,98246.00
2023-01-10T07:36:03.520Z,98252.00
2023-01-10T07:38:31.120Z,98261.00
2023-01-10T07:40:58.791Z,98265.00
2023-01-10T07:43:26.411Z,98269.00
2023-01-10T07:45:54.064Z,98286.00
2023-01-10T07:48:21.944Z,98284.00
2023-01-10T07:50:49.838Z,98291.00
2023-01-10T07:53:18.811Z,98294.00
2023-01-10T07:55:46.439Z,98300.00
2023-01-10T07:58:14.626Z,98314.00
2023-01-10T08:00:46.014Z,98306.00
2023-01-10T08:03:14.305Z,98319.00
2023-01-10T08:05:42.032Z,98319.00
2023-01-10T08:08:11.259Z,98329.00
2023-01-10T08:10:41.369Z,98323.00
2023-01-10T08:13:18.477Z,98331.00
2023-01-10T08:15:47.248Z,98318.00
2023-01-10T08:18:15.098Z,98329.00
2023-01-10T08:20:42.977Z,98329.00
2023-01-10T08:23:10.722Z,98329.00
2023-01-10T08:25:39.861Z,98325.00
2023-01-10T08:28:07.787Z,98330.00
2023-01-10T08:30:35.462Z,98330.00
2023-01-10T08:33:03.947Z,98340.00
2023-01-10T08:35:31.647Z,98348.00
2023-01-10T08:38:00.402Z,98354.00
2023-01-10T08:40:28.072Z,98367.00
2023-01-10T08:43:01.213Z,98375.00
2023-01-10T08:45:29.711Z,98368.00
2023-01-10T08:47:57.681Z,98377.00
2023-01-10T08:50:26.319Z,98368.00
2023-01-10T08:52:53.963Z,98365.00
2023-01-10T08:55:21.901Z,98362.00
2023-01-10T08:57:49.639Z,98371.00
2023-01-10T09:00:19.628Z,98375.00
2023-01-10T09:02:47.367Z,98383.00
2023-01-10T09:05:26.347Z,98395.00
2023-01-10T09:07:54.933Z,98405.00
2023-01-10T09:10:22.650Z,98407.00
2023-01-10T09:12:56.353Z,98408.00
2023-01-10T09:15:27.838Z,98415.00
2023-01-10T09:17:56.495Z,98421.00
2023-01-10T09:20:25.884Z,98438.00
2023-01-10T09:22:54.270Z,98442.00
2023-01-10T09:25:22.195Z,98436.00
2023-01-10T09:27:57.742Z,98439.00
2023-01-10T09:30:27.277Z,98436.00
2023-01-10T09:32:55.900Z,98436.00
2023-01-10T09:35:24.248Z,98434.00
2023-01-10T09:37:55.030Z,98450.00
2023-01-10T09:40:31.752Z,98456.00
2023-01-10T09:43:11.398Z,98451.00
2023-01-10T09:45:46.306Z,98449.00
2023-01-10T09:48:30.492Z,98445.00
2023-01-10T09:51:13.443Z,98457.00
2023-01-10T09:53:45.747Z,98464.00
2023-01-10T09:56:15.530Z,98459.00
2023-01-10T09:58:44.766Z,98442.00
2023-01-10T10:01:18.052Z,98445.00
2023-01-10T10:03:52.822Z,98443.00
2023-01-10T10:06:20.998Z,98442.00
2023-01-10T10:08:49.223Z,98431.00
2023-01-10T10:11:50.128Z,98424.00
2023-01-10T10:14:30.722Z,98440.00
2023-01-10T10:17:13.273Z,98445.00
2023-01-10T10:19:56.388Z,98456.00
2023-01-10T10:22:31.541Z,98460.00
2023-01-10T10:25:10.303Z,98460.00
2023-01-10T10:27:47.612Z,98470.00
2023-01-10T10:30:32.233Z,98477.00
2023-01-10T10:33:15.879Z,98476.00
2023-01-10T10:35:48.649Z,98472.00
2023-01-10T10:38:23.520Z,98472.00
2023-01-10T10:40:52.963Z,98468.00
2023-01-10T10:43:22.850Z,98469.00
2023-01-10T10:45:55.484Z,98472.00
2023-01-10T10:48:28.130Z,98470.00
2023-01-10T10:51:03.409Z,98477.00
2023-01-10T10:53:33.586Z,98477.00
2023-01-10T10:56:02.569Z,98486.00
2023-01-10T10:58:32.120Z,98479.00
2023-01-10T11:01:00.560Z,98489.00
2023-01-10T11:03:40.890Z,98491.00
2023-01-10T11:06:09.791Z,98490.00
2023-01-10T11:08:41.273Z,98491.00
2023-01-10T11:11:19.828Z,98490.00
2023-01-10T11:13:53.152Z,98491.00
2023-01-10T11:16:26.839Z,98485.00
2023-01-10T11:19:19.845Z,98487.00
2023-01-10T11:21:51.728Z,98482.00
2023-01-10T11:24:27.030Z,98480.00
2023-01-10T11:26:56.331Z,98482.00
2023-01-10T11:29:27.672Z,98491.00
2023-01-10T11:31:57.104Z,98501.00
2023-01-10T11:34:28.194Z,98496.00
2023-01-10T11:37:00.312Z,98506.00
2023-01-10T11:39:29.089Z,98493.00
2023-01-10T11:41:58.284Z,98493.00
2023-01-10T11:44:28.233Z,98497.00
2023-01-10T11:46:57.895Z,98488.00
2023-01-10T11:49:33.911Z,98483.00
2023-01-10T11:52:05.805Z,98488.00
2023-01-10T11:54:33.940Z,98487.00
2023-01-10T11:57:04.915Z,98488.00
2023-01-10T11:59:32.953Z,98492.00
2023-01-10T12:02:04.738Z,98493.00
2023-01-10T12:04:40.606Z,98495.00
2023-01-10T12:07:10.434Z,98495.00
2023-01-10T12:09:40.958Z,98505.00
2023-01-10T12:12:18.571Z,98503.00
2023-01-10T12:14:46.715Z,98502.00
2023-01-10T12:17:22.389Z,98500.00
2023-01-10T12:19:53.233Z,98503.00
2023-01-10T12:22:25.704Z,98497.00
2023-01-10T12:24:55.440Z,98495.00
2023-01-10T12:27:28.797Z,98497.00
2023-01-10T12:30:04.210Z,98498.00
2023-01-10T12:32:37.758Z,98499.00
2023-01-10T12:35:15.128Z,98496.00
2023-01-10T12:37:49.406Z,98498.00
2023-01-10T12:40:27.649Z,98499.00
2023-01-10T12:43:16.030Z,98489.00
2023-01-10T12:45:47.913Z,98484.00
2023-01-10T12:48:22.214Z,98475.00
2023-01-10T12:50:58.619Z,98483.00
2023-01-10T12:53:32.267Z,98487.00
2023-01-10T12:56:04.882Z,98494.00
2023-01-10T12:58:42.993Z,98495.00
2023-01-10T13:01:14.219Z,98495.00
2023-01-10T13:03:42.758Z,98505.00
2023-01-10T13:06:20.515Z,98508.00
2023-01-10T13:08:48.417Z,98507.00
2023-01-10T13:11:21.552Z,98512.00
2023-01-10T13:13:54.766Z,98504.00
2023-01-10T13:16:31.011Z,98496.00
2023-01-10T13:19:01.213Z,98498.00
2023-01-10T13:21:31.200Z,98497.00
2023-01-10T13:24:01.283Z,98496.00
2023-01-10T13:26:47.109Z,98492.00
2023-01-10T13:29:19.353Z,98496.00
2023-01-10T13:31:49.798Z,98494.00
2023-01-10T13:34:20.139Z,98493.00
2023-01-10T13:36:55.893Z,98500.00
2023-01-10T13:39:28.831Z,98504.00
2023-01-10T13:42:47.011Z,98505.00
2023-01-10T13:45:23.608Z,98505.00
2023-01-10T13:48:05.194Z,98502.00
2023-01-10T13:50:51.086Z,98496.00
2023-01-10T13:54:00.329Z,98503.00
2023-01-10T13:56:40.714Z,98511.00
2023-01-10T13:59:33.899Z,98512.00
2023-01-10T14:02:21.285Z,98517.00
2023-01-10T14:04:54.028Z,98522.00
2023-01-10T14:07:28.071Z,98521.00
2023-01-10T14:10:03.740Z,98527.00
2023-01-10T14:12:36.084Z,98530.00
2023-01-10T14:15:08.139Z,98534.00
2023-01-10T14:17:38.262Z,98540.00
2023-01-10T14:20:16.018Z,98530.00
2023-01-10T14:22:58.819Z,98534.00
2023-01-10T14:25:28.043Z,98540.00
2023-01-10T14:27:58.582Z,98535.00
2023-01-10T14:30:30.544Z,98540.00
2023-01-10T14:33:03.110Z,98541.00
2023-01-10T14:35:35.997Z,98541.00
2023-01-10T14:38:04.885Z,98540.00
2023-01-10T14:40:40.847Z,98540.00
2023-01-10T14:43:14.649Z,98538.00
2023-01-10T14:45:50.606Z,98540.00
2023-01-10T14:48:30.748Z,98538.00
2023-01-10T14:51:17.923Z,98538.00
2023-01-10T14:53:45.716Z,98538.00
2023-01-10T14:56:25.470Z,98526.00
2023-01-10T14:58:54.705Z,98536.00
2023-01-10T15:01:26.004Z,98530.00
2023-01-10T15:03:57.191Z,98538.00
2023-01-10T15:06:25.988Z,98537.00
2023-01-10T15:08:58.395Z,98537.00
2023-01-10T15:11:28.468Z,98527.00
2023-01-10T15:14:03.389Z,98534.00
2023-01-10T15:16:31.710Z,98536.00
2023-01-10T15:18:59.421Z,98534.00
2023-01-10T15:21:27.087Z,98528.00
2023-01-10T15:23:54.697Z,98530.00
2023-01-10T15:26:28.573Z,98530.00
2023-01-10T15:29:10.569Z,98536.00
2023-01-10T15:31:39.096Z,98530.00
2023-01-10T15:34:12.136Z,98529.00
2023-01-10T15:36:44.452Z,98518.00
2023-01-10T15:39:19.901Z,98515.00
2023-01-10T15:41:48.573Z,98514.00
2023-01-10T15:44:38.162Z,98509.00
2023-01-10T15:47:06.372Z,98507.00
2023-01-10T15:49:34.552Z,98513.00
2023-01-10T15:52:02.225Z,98504.00
2023-01-10T15:54:32.673Z,98504.00
2023-01-10T15:57:09.317Z,98503.00
2023-01-10T15:59:40.742Z,98506.00
2023-01-10T16:02:23.029Z,98495.00
2023-01-10T16:04:52.858Z,98501.00
2023-01-10T16:07:25.019Z,98506.00
2023-01-10T16:09:57.265Z,98500.00
2023-01-10T16:12:51.519Z,98497.00
2023-01-10T16:15:23.724Z,98496.00
2023-01-10T16:17:52.155Z,98489.00
2023-01-10T16:20:22.545Z,98486.00
2023-01-10T16:22:51.753Z,98481.00
2023-01-10T16:25:23.306Z,98489.00
2023-01-10T16:27:50.957Z,98490.00
2023-01-10T16:30:25.360Z,98482.00
2023-01-10T16:32:53.739Z,98477.00
2023-01-10T16:35:22.259Z,98486.00
2023-01-10T16:37:50.647Z,98489.00
2023-01-10T16:40:21.248Z,98488.00
2023-01-10T16:43:06.362Z,98488.00
2023-01-10T16:45:35.411Z,98482.00
2023-01-10T16:48:03.503Z,98488.00
2023-01-10T16:50:31.250Z,98484.00
2023-01-10T16:52:59.368Z,98477.00
2023-01-10T16:55:34.537Z,98471.00
2023-01-10T16:58:02.155Z,98477.00
2023-01-10T17:00:29.791Z,98475.00
2023-01-10T17:02:59.436Z,98475.00
2023-01-10T17:05:27.082Z,98481.00
2023-01-10T17:07:54.697Z,98486.00
2023-01-10T17:10:22.316Z,98481.00
2023-01-10T17:12:50.095Z,98478.00
2023-01-10T17:15:17.912Z,98477.00
2023-01-10T17:17:45.553Z,98471.00
2023-01-10T17:20:16.420Z,98473.00
2023-01-10T17:22:44.417Z,98461.00
2023-01-10T17:25:14.959Z,98459.00
2023-01-10T17:27:42.886Z,98461.00
2023-01-10T17:30:12.476Z,98468.00
2023-01-10T17:32:40.185Z,98460.00
2023-01-10T17:35:09.098Z,98463.00
2023-01-10T17:37:38.120Z,98449.00
2023-01-10T17:40:08.113Z,98453.00
2023-01-10T17:42:35.767Z,98449.00
2023-01-10T17:45:03.641Z,98439.00
2023-01-10T17:47:31.336Z,98446.00
2023-01-10T17:49:58.968Z,98447.00
2023-01-10T17:52:28.312Z,98451.00
2023-01-10T17:55:00.394Z,98445.00
2023-01-10T17:57:28.044Z,98441.00
2023-01-10T17:59:55.721Z,98436.00
2023-01-10T18:02:23.529Z,98449.00
2023-01-10T18:04:51.243Z,98442.00
2023-01-10T18:07:18.847Z,98445.00
2023-01-10T18:09:46.549Z,98447.00
2023-01-10T18:12:15.893Z,98455.00
2023-01-10T18:14:43.522Z,98443.00
2023-01-10T18:17:13.022Z,98444.00
2023-01-10T18:19:40.666Z,98441.00
2023-01-10T18:22:22.235Z,98440.00
2023-01-10T18:24:52.203Z,98438.00
2023-01-10T18:27:21.395Z,98442.00
2023-01-10T18:29:49.779Z,98434.00
2023-01-10T18:32:17.479Z,98435.00
2023-01-10T18:34:47.063Z,98432.00
2023-01-10T18:37:15.368Z,98430.00
2023-01-10T18:39:43.508Z,98437.00
2023-01-10T18:42:11.375Z,98435.00
2023-01-10T18:44:41.282Z,98428.00
2023-01-10T18:47:09.339Z,98427.00
2023-01-10T18:49:37.012Z,98425.00
2023-01-10T18:52:04.828Z,98423.00
2023-01-10T18:54:32.443Z,98420.00
2023-01-10T18:57:00.105Z,98413.00
2023-01-10T18:59:27.770Z,98407.00
2023-01-10T19:01:56.806Z,98403.00
2023-01-10T19:04:24.483Z,98409.00
2023-01-10T19:06:52.110Z,98401.00
2023-01-10T19:09:20.133Z,98399.00
2023-01-10T19:11:47.796Z,98393.00
2023-01-10T19:14:15.420Z,98392.00
2023-01-10T19:16:43.042Z,98389.00
2023-01-10T19:19:12.436Z,98385.00
2023-01-10T19:21:41.113Z,98381.00
2023-01-10T19:24:16.177Z,98382.00
2023-01-10T19:26:43.802Z,98385.00
2023-01-10T19:29:11.467Z,98378.00
2023-01-10T19:31:41.486Z,98383.00
2023-01-10T19:34:09.237Z,98385.00
2023-01-10T19:36:39.427Z,98384.00
2023-01-10T19:39:07.142Z,98382.00
2023-01-10T19:41:35.734Z,98388.00
2023-01-10T19:44:05.168Z,98384.00
2023-01-10T19:46:34.109Z,98387.00
2023-01-10T19:49:03.339Z,98388.00
2023-01-10T19:51:30.947Z,98384.00
2023-01-10T19:53:59.910Z,98383.00
2023-01-10T19:56:27.511Z,98387.00
2023-01-10T19:58:55.709Z,98386.00
2023-01-10T20:01:25.726Z,98389.00
2023-01-10T20:03:55.403Z,98374.00
2023-01-10T20:06:25.850Z,98378.00
2023-01-10T20:08:54.962Z,98381.00
2023-01-10T20:11:26.126Z,98390.00
2023-01-10T20:13:55.487Z,98390.00
2023-01-10T20:16:24.496Z,98377.00
2023-01-10T20:18:52.935Z,98382.00
2023-01-10T20:21:21.129Z,98369.00
2023-01-10T20:23:49.045Z,98378.00
2023-01-10T20:26:18.347Z,98373.00
2023-01-10T20:28:48.498Z,98372.00
2023-01-10T20:31:19.019Z,98367.00
2023-01-10T20:33:46.919Z,98371.00
2023-01-10T20:36:16.987Z,98359.00
2023-01-10T20:38:44.762Z,98358.00
2023-01-10T20:41:14.886Z,98357.00
2023-01-10T20:43:43.076Z,98357.00
2023-01-10T20:46:13.638Z,98348.00
2023-01-10T20:48:42.056Z,98347.00
2023-01-10T20:51:12.717Z,98342.00
2023-01-10T20:53:40.486Z,98341.00
2023-01-10T20:56:11.737Z,98339.00
2023-01-10T20:58:40.131Z,98337.00
2023-01-10T21:01:08.985Z,98341.00
2023-01-10T21:03:38.205Z,98345.00
2023-01-10T21:06:08.739Z,98338.00
2023-01-10T21:08:37.507Z,98339.00
2023-01-10T21:11:06.440Z,98329.00
2023-01-10T21:13:34.940Z,98326.00
2023-01-10T21:16:03.305Z,98321.00
2023-01-10T21:18:33.245Z,98319.00
2023-01-10T21:21:02.556Z,98318.00
2023-01-10T21:23:30.270Z,98322.00
2023-01-10T21:26:03.271Z,98315.00
2023-01-10T21:28:34.372Z,98314.00
2023-01-10T21:31:02.414Z,98303.00
2023-01-10T21:33:30.052Z,98304.00
2023-01-10T21:35:58.956Z,98311.00
2023-01-10T21:38:29.730Z,98299.00
2023-01-10T21:41:05.102Z,98299.00
2023-01-10T21:43:33.592Z,98292.00
2023-01-10T21:46:01.911Z,98291.00
2023-01-10T21:48:30.385Z,98293.00
2023-01-10T21:50:58.769Z,98295.00
2023-01-10T21:53:28.261Z,98295.00
2023-01-10T21:55:58.731Z,98285.00
2023-01-10T21:58:26.399Z,98271.00
2023-01-10T22:00:57.163Z,98278.00
2023-01-10T22:03:24.899Z,98264.00
2023-01-10T22:05:52.614Z,98268.00
2023-01-10T22:08:20.221Z,98256.00
2023-01-10T22:10:49.438Z,98257.00
2023-01-10T22:13:17.043Z,98255.00
2023-01-10T22:15:44.705Z,98263.00
2023-01-10T22:18:12.470Z,98261.00
2023-01-10T22:20:40.083Z,98253.00
2023-01-10T22:23:07.685Z,98258.00
2023-01-10T22:25:35.289Z,98255.00
2023-01-10T22:28:04.367Z,98258.00
2023-01-10T22:30:31.985Z,98262.00
2023-01-10T22:33:03.007Z,98251.00
2023-01-10T22:35:31.576Z,98246.00
2023-01-10T22:37:59.365Z,98261.00
2023-01-10T22:40:27.882Z,98263.00
2023-01-10T22:42:55.517Z,98263.00
2023-01-10T22:45:24.514Z,98257.00
2023-01-10T22:47:52.124Z,98259.00
2023-01-10T22:50:19.897Z,98255.00
2023-01-10T22:52:49.905Z,98248.00
2023-01-10T22:55:19.647Z,98257.00
2023-01-10T22:57:48.026Z,98255.00
2023-01-10T23:00:16.926Z,98253.00
2023-01-10T23:02:46.427Z,98246.00
2023-01-10T23:05:14.052Z,98249.00
2023-01-10T23:07:41.647Z,98241.00
2023-01-10T23:10:28.431Z,98249.00
2023-01-10T23:12:57.782Z,98236.00
2023-01-10T23:15:25.746Z,98240.00
2023-01-10T23:17:54.963Z,98231.00
2023-01-10T23:20:22.600Z,98225.00
2023-01-10T23:22:50.228Z,98223.00
2023-01-10T23:25:18.181Z,98214.00
2023-01-10T23:27:45.784Z,98209.00
2023-01-10T23:30:13.710Z,98218.00
2023-01-10T23:32:41.346Z,98201.00
2023-01-10T23:35:10.922Z,98204.00
2023-01-10T23:37:38.669Z,98196.00
2023-01-10T23:40:07.482Z,98194.00
2023-01-10T23:42:35.076Z,98190.00
2023-01-10T23:45:02.660Z,98194.00
2023-01-10T23:47:30.231Z,98188.00
2023-01-10T23:49:58.182Z,98180.00
2023-01-10T23:52:27.131Z,98182.00
2023-01-10T23:54:54.769Z,98179.00
2023-01-10T23:57:22.572Z,98174.00
2023-01-10T23:59:50.210Z,98173.00
